Time;durP1;ratioP1;P1;durP2;ratioP2;P2;SDS_P1;SDS_P2;PMS_P1;PMS_P2;Temp;Humidity;BMP_temperature;BMP_pressure;BME280_temperature;BME280_humidity;BME280_pressure;Samples;Min_cycle;Max_cycle;Signal;HPM_P1;HPM_P2
2022/08/23 00:02:24;;;;;;;3.73;1.67;;;;;;;;;;5032210;28;20659;-67
2022/08/23 00:04:51;;;;;;;3.70;1.97;;;;;;;;;;5053096;28;20516;-68
2022/08/23 00:07:38;;;;;;;7.83;2.50;;;;;;;;;;5048611;28;20304;-68
2022/08/23 00:10:07;;;;;;;5.80;1.90;;;;;;;;;;5048842;28;20268;-67
2022/08/23 00:12:51;;;;;;;4.53;1.80;;;;;;;;;;5038805;28;20589;-67
2022/08/23 00:15:19;;;;;;;6.10;2.20;;;;;;;;;;5049965;28;20550;-67
2022/08/23 00:17:46;;;;;;;4.50;1.83;;;;;;;;;;5046972;28;20189;-69
2022/08/23 00:20:13;;;;;;;2.97;1.60;;;;;;;;;;5006567;28;20197;-68
2022/08/23 00:22:39;;;;;;;4.37;1.60;;;;;;;;;;5030509;28;20191;-70
2022/08/23 00:25:07;;;;;;;3.90;2.10;;;;;;;;;;5037821;28;20199;-68
2022/08/23 00:27:33;;;;;;;4.10;2.00;;;;;;;;;;5030864;28;20215;-68
2022/08/23 00:30:00;;;;;;;5.53;2.00;;;;;;;;;;5050333;28;20178;-68
2022/08/23 00:32:28;;;;;;;5.03;2.57;;;;;;;;;;5049934;28;20197;-68
2022/08/23 00:34:55;;;;;;;5.83;2.07;;;;;;;;;;5050344;28;20241;-68
2022/08/23 00:37:22;;;;;;;4.23;1.90;;;;;;;;;;5021807;28;20192;-68
2022/08/23 00:39:48;;;;;;;5.70;1.60;;;;;;;;;;5025375;28;20830;-67
2022/08/23 00:47:53;;;;;;;4.53;1.60;;;;;;;;;;5046843;28;20264;-68
2022/08/23 00:50:31;;;;;;;5.20;1.87;;;;;;;;;;5048107;28;20195;-68
2022/08/23 00:53:02;;;;;;;3.43;1.70;;;;;;;;;;5030274;28;20298;-67
2022/08/23 00:55:29;;;;;;;5.07;1.93;;;;;;;;;;5012750;28;20195;-67
2022/08/23 00:57:56;;;;;;;3.77;1.90;;;;;;;;;;5048181;28;20520;-68
2022/08/23 01:00:24;;;;;;;5.20;1.67;;;;;;;;;;5000907;28;20259;-68
2022/08/23 01:02:51;;;;;;;3.33;1.77;;;;;;;;;;5047704;28;20183;-68
2022/08/23 01:05:18;;;;;;;4.43;1.60;;;;;;;;;;5048362;28;20230;-73
2022/08/23 01:07:48;;;;;;;2.70;1.50;;;;;;;;;;5048371;28;20217;-68
2022/08/23 01:10:29;;;;;;;4.80;1.93;;;;;;;;;;5046840;28;20209;-68
2022/08/23 01:12:58;;;;;;;5.23;1.77;;;;;;;;;;5012962;28;20242;-68
2022/08/23 01:15:26;;;;;;;3.17;1.60;;;;;;;;;;5031525;28;20668;-67
2022/08/23 01:18:01;;;;;;;3.40;1.70;;;;;;;;;;5014244;28;20187;-68
2022/08/23 01:20:48;;;;;;;5.07;1.50;;;;;;;;;;5049372;28;20183;-68
2022/08/23 01:23:22;;;;;;;4.73;1.70;;;;;;;;;;5046367;28;20198;-68
2022/08/23 01:25:49;;;;;;;4.87;1.90;;;;;;;;;;5029984;28;20201;-68
2022/08/23 01:28:17;;;;;;;4.30;2.17;;;;;;;;;;5042471;28;20257;-68
2022/08/23 01:30:45;;;;;;;6.90;2.20;;;;;;;;;;5046227;28;20221;-68
2022/08/23 01:33:30;;;;;;;4.33;1.87;;;;;;;;;;5030857;28;20593;-68
2022/08/23 01:35:56;;;;;;;5.17;2.13;;;;;;;;;;5048427;28;20178;-68
2022/08/23 01:38:25;;;;;;;3.97;2.00;;;;;;;;;;5030739;28;20222;-68
2022/08/23 01:40:56;;;;;;;5.07;2.60;;;;;;;;;;5028378;28;20216;-68
2022/08/23 01:43:24;;;;;;;3.67;1.60;;;;;;;;;;5047995;28;20732;-68
2022/08/23 01:45:52;;;;;;;4.53;1.93;;;;;;;;;;5046327;28;20289;-68
2022/08/23 01:48:21;;;;;;;2.63;1.53;;;;;;;;;;5046887;28;20682;-68
2022/08/23 01:50:49;;;;;;;3.27;1.97;;;;;;;;;;5046617;28;20190;-69
2022/08/23 01:53:16;;;;;;;4.00;2.30;;;;;;;;;;5046650;28;20221;-68
2022/08/23 01:56:00;;;;;;;6.43;2.10;;;;;;;;;;5040383;28;20175;-68
2022/08/23 01:58:30;;;;;;;4.27;1.90;;;;;;;;;;5046519;28;20195;-71
2022/08/23 02:00:57;;;;;;;6.77;2.83;;;;;;;;;;5046203;28;20721;-68
2022/08/23 02:03:24;;;;;;;6.97;3.40;;;;;;;;;;5046360;28;20625;-68
2022/08/23 02:05:50;;;;;;;5.40;2.50;;;;;;;;;;5044969;28;20187;-68
2022/08/23 02:11:09;;;;;;;3.13;1.90;;;;;;;;;;5031672;28;20202;-68
2022/08/23 02:13:38;;;;;;;6.80;2.10;;;;;;;;;;5014199;28;20819;-68
2022/08/23 02:16:05;;;;;;;4.57;1.90;;;;;;;;;;5028613;28;20187;-68
2022/08/23 02:18:33;;;;;;;3.10;1.80;;;;;;;;;;5041595;28;20619;-68
2022/08/23 02:21:00;;;;;;;7.03;2.37;;;;;;;;;;5046322;28;20190;-68
2022/08/23 02:23:27;;;;;;;4.20;2.30;;;;;;;;;;5029980;28;20191;-68
2022/08/23 02:25:54;;;;;;;5.17;3.10;;;;;;;;;;5030127;28;20187;-68
2022/08/23 02:28:21;;;;;;;6.73;3.83;;;;;;;;;;5046923;28;20221;-67
2022/08/23 02:30:48;;;;;;;4.80;2.30;;;;;;;;;;5046662;28;20190;-68
2022/08/23 02:33:15;;;;;;;4.63;2.30;;;;;;;;;;5045742;28;20192;-67
2022/08/23 02:35:43;;;;;;;4.10;2.00;;;;;;;;;;5045500;28;20218;-68
2022/08/23 02:38:10;;;;;;;4.63;2.40;;;;;;;;;;5028900;28;20190;-68
2022/08/23 02:40:37;;;;;;;4.70;2.13;;;;;;;;;;5046559;28;20256;-67
2022/08/23 02:43:05;;;;;;;3.67;1.90;;;;;;;;;;5013778;28;20274;-68
2022/08/23 02:45:32;;;;;;;2.60;2.00;;;;;;;;;;5013888;28;20199;-68
2022/08/23 02:47:59;;;;;;;4.77;2.40;;;;;;;;;;5010539;28;20221;-68
2022/08/23 02:50:34;;;;;;;6.43;2.20;;;;;;;;;;5045580;28;20198;-68
2022/08/23 02:53:02;;;;;;;4.27;2.13;;;;;;;;;;5044745;28;20286;-68
2022/08/23 02:55:31;;;;;;;4.03;2.07;;;;;;;;;;5028728;28;20646;-68
2022/08/23 02:57:58;;;;;;;6.73;2.20;;;;;;;;;;5011994;28;20195;-68
2022/08/23 03:00:25;;;;;;;3.27;2.20;;;;;;;;;;5027280;28;20207;-67
2022/08/23 03:02:51;;;;;;;5.37;2.67;;;;;;;;;;5046084;28;20196;-67
2022/08/23 03:05:18;;;;;;;5.40;2.77;;;;;;;;;;5026652;28;20280;-68
2022/08/23 03:07:45;;;;;;;4.00;2.50;;;;;;;;;;5012989;28;20308;-69
2022/08/23 03:10:12;;;;;;;7.20;3.07;;;;;;;;;;5028791;28;20256;-68
2022/08/23 03:12:46;;;;;;;5.07;3.00;;;;;;;;;;5028622;28;20229;-68
2022/08/23 03:15:27;;;;;;;7.50;2.90;;;;;;;;;;4995180;28;20307;-68
2022/08/23 03:17:55;;;;;;;4.53;3.13;;;;;;;;;;5023610;28;20212;-67
2022/08/23 03:20:24;;;;;;;7.93;3.03;;;;;;;;;;5004855;28;20183;-68
2022/08/23 03:22:50;;;;;;;5.40;3.00;;;;;;;;;;4988819;28;20575;-68
2022/08/23 03:25:23;;;;;;;4.77;2.80;;;;;;;;;;4987545;28;20207;-69
2022/08/23 03:28:26;;;;;;;5.30;2.97;;;;;;;;;;4959660;28;20221;-69
2022/08/23 03:30:53;;;;;;;5.87;2.90;;;;;;;;;;4989950;28;20713;-69
2022/08/23 03:33:20;;;;;;;7.27;2.77;;;;;;;;;;5019148;28;20225;-72
2022/08/23 03:35:47;;;;;;;4.33;2.93;;;;;;;;;;5002527;28;20188;-68
2022/08/23 03:38:16;;;;;;;5.97;3.40;;;;;;;;;;5003315;28;20195;-67
2022/08/23 03:40:43;;;;;;;10.67;3.60;;;;;;;;;;5018236;28;20207;-68
2022/08/23 03:43:46;;;;;;;4.77;3.27;;;;;;;;;;5010519;28;20245;-67
2022/08/23 03:46:22;;;;;;;5.63;3.43;;;;;;;;;;5001703;28;20192;-67
2022/08/23 03:49:01;;;;;;;4.60;3.13;;;;;;;;;;5018527;28;20339;-67
2022/08/23 03:52:15;;;;;;;6.57;3.20;;;;;;;;;;5021122;28;20196;-67
2022/08/23 03:55:01;;;;;;;6.87;3.27;;;;;;;;;;5007546;28;20198;-67
2022/08/23 03:57:44;;;;;;;5.97;3.30;;;;;;;;;;4990203;28;20210;-67
2022/08/23 04:00:13;;;;;;;4.47;3.70;;;;;;;;;;5023983;28;20678;-68
2022/08/23 04:02:47;;;;;;;7.67;4.00;;;;;;;;;;4990736;28;20882;-69
2022/08/23 04:05:23;;;;;;;7.33;3.20;;;;;;;;;;5006209;28;20210;-67
2022/08/23 04:07:57;;;;;;;6.87;3.07;;;;;;;;;;5021712;28;20246;-70
2022/08/23 04:10:24;;;;;;;6.27;3.30;;;;;;;;;;4973308;28;20230;-72
2022/08/23 04:12:54;;;;;;;8.27;2.90;;;;;;;;;;5007078;28;20196;-72
2022/08/23 04:15:21;;;;;;;7.30;3.23;;;;;;;;;;5026104;28;20195;-68
2022/08/23 04:17:48;;;;;;;5.70;3.50;;;;;;;;;;5043333;28;20191;-71
2022/08/23 04:20:16;;;;;;;7.23;3.33;;;;;;;;;;5024961;28;20203;-71
2022/08/23 04:22:56;;;;;;;5.13;3.20;;;;;;;;;;5017281;28;20269;-71
2022/08/23 04:25:26;;;;;;;5.87;3.27;;;;;;;;;;5040067;28;20907;-70
2022/08/23 04:28:02;;;;;;;6.57;3.60;;;;;;;;;;5024473;28;20593;-70
2022/08/23 04:30:30;;;;;;;7.97;3.73;;;;;;;;;;5041629;28;20553;-74
2022/08/23 04:33:14;;;;;;;6.20;3.57;;;;;;;;;;5040814;28;20183;-73
2022/08/23 04:35:44;;;;;;;4.27;3.33;;;;;;;;;;5043847;28;20190;-70
2022/08/23 04:38:14;;;;;;;5.40;3.73;;;;;;;;;;5007876;28;20202;-68
2022/08/23 04:43:38;;;;;;;6.07;4.00;;;;;;;;;;5047976;28;20191;-67
2022/08/23 04:46:06;;;;;;;8.03;4.10;;;;;;;;;;5024218;28;20294;-67
2022/08/23 04:48:34;;;;;;;9.03;4.30;;;;;;;;;;5047427;28;20245;-68
2022/08/23 04:51:01;;;;;;;7.07;4.53;;;;;;;;;;5009062;28;20203;-70
2022/08/23 04:53:34;;;;;;;8.20;4.40;;;;;;;;;;5025783;28;20215;-72
2022/08/23 04:56:39;;;;;;;8.03;4.40;;;;;;;;;;5025215;28;20620;-68
2022/08/23 04:59:07;;;;;;;7.13;4.27;;;;;;;;;;5025821;28;20886;-68
2022/08/23 05:01:52;;;;;;;9.10;4.67;;;;;;;;;;5033177;28;20267;-68
2022/08/23 05:04:19;;;;;;;9.27;5.23;;;;;;;;;;5047799;28;20212;-68
2022/08/23 05:06:47;;;;;;;9.93;5.10;;;;;;;;;;5041339;28;20195;-67
2022/08/23 05:09:15;;;;;;;9.23;4.97;;;;;;;;;;5024935;28;20230;-73
2022/08/23 05:11:47;;;;;;;8.37;5.00;;;;;;;;;;5043605;28;20195;-68
2022/08/23 05:14:14;;;;;;;8.93;5.00;;;;;;;;;;5030242;28;20856;-70
2022/08/23 05:16:40;;;;;;;11.47;5.20;;;;;;;;;;5013210;28;20245;-67
2022/08/23 05:19:25;;;;;;;10.57;5.53;;;;;;;;;;5029816;28;20234;-69
2022/08/23 05:21:52;;;;;;;10.47;5.40;;;;;;;;;;5014909;28;20300;-68
2022/08/23 05:24:33;;;;;;;9.93;5.87;;;;;;;;;;4991691;28;20239;-69
2022/08/23 05:27:03;;;;;;;10.10;5.40;;;;;;;;;;5006254;28;20227;-70
2022/08/23 05:29:30;;;;;;;8.90;5.50;;;;;;;;;;5022852;28;20250;-68
2022/08/23 05:31:58;;;;;;;10.33;4.73;;;;;;;;;;5003381;28;20194;-69
2022/08/23 05:34:25;;;;;;;11.60;5.20;;;;;;;;;;5003857;28;20195;-67
2022/08/23 05:36:55;;;;;;;7.53;4.63;;;;;;;;;;5019658;28;20200;-68
2022/08/23 05:39:38;;;;;;;7.27;4.47;;;;;;;;;;5020261;28;20290;-68
2022/08/23 05:42:06;;;;;;;7.27;4.33;;;;;;;;;;5021262;28;20217;-69
2022/08/23 05:44:34;;;;;;;7.53;4.27;;;;;;;;;;4989178;28;21021;-74
2022/08/23 05:47:04;;;;;;;6.73;4.20;;;;;;;;;;5023117;28;20196;-81
2022/08/23 05:49:43;;;;;;;8.03;4.03;;;;;;;;;;5025150;28;20916;-78
2022/08/23 05:52:11;;;;;;;7.87;4.57;;;;;;;;;;4989686;28;20210;-73
2022/08/23 05:54:38;;;;;;;6.90;4.07;;;;;;;;;;5004523;28;20234;-73
2022/08/23 05:57:25;;;;;;;9.10;4.40;;;;;;;;;;5009443;28;20666;-75
2022/08/23 05:59:52;;;;;;;7.07;4.03;;;;;;;;;;5005766;28;20183;-70
2022/08/23 06:02:19;;;;;;;8.90;4.40;;;;;;;;;;5034127;28;20310;-70
2022/08/23 06:04:46;;;;;;;7.77;3.83;;;;;;;;;;5018153;28;20200;-72
2022/08/23 06:07:15;;;;;;;7.37;3.87;;;;;;;;;;5002347;28;20192;-71
2022/08/23 06:09:42;;;;;;;8.93;4.27;;;;;;;;;;5005615;28;20215;-69
2022/08/23 06:12:10;;;;;;;7.40;4.20;;;;;;;;;;5020093;28;20707;-73
2022/08/23 06:14:38;;;;;;;10.10;3.90;;;;;;;;;;5020949;28;20242;-73
2022/08/23 06:17:05;;;;;;;6.67;3.93;;;;;;;;;;5037345;28;20175;-73
2022/08/23 06:19:50;;;;;;;9.50;4.10;;;;;;;;;;5022156;28;20713;-70
2022/08/23 06:22:35;;;;;;;7.40;3.50;;;;;;;;;;5014980;28;20222;-70
2022/08/23 06:25:20;;;;;;;5.87;3.60;;;;;;;;;;5021803;28;20822;-73
2022/08/23 06:28:13;;;;;;;6.43;4.10;;;;;;;;;;5038100;28;20215;-73
2022/08/23 06:30:43;;;;;;;7.63;4.27;;;;;;;;;;5020145;28;20276;-73
2022/08/23 06:33:25;;;;;;;7.07;4.33;;;;;;;;;;5022143;28;20190;-73
2022/08/23 06:36:16;;;;;;;7.90;4.43;;;;;;;;;;5034787;28;20202;-73
2022/08/23 06:38:56;;;;;;;9.13;4.37;;;;;;;;;;5024823;28;20194;-76
2022/08/23 06:41:43;;;;;;;7.33;4.37;;;;;;;;;;5039508;28;20221;-69
2022/08/23 06:44:27;;;;;;;6.60;3.80;;;;;;;;;;5021299;28;20637;-71
2022/08/23 06:47:32;;;;;;;5.73;2.70;;;;;;;;;;5025307;28;20182;-72
2022/08/23 06:49:59;;;;;;;6.03;2.90;;;;;;;;;;5007485;28;20218;-73
2022/08/23 06:53:01;;;;;;;6.40;3.20;;;;;;;;;;4979998;28;20573;-72
2022/08/23 06:55:51;;;;;;;5.77;3.27;;;;;;;;;;5036531;28;21526;-72
2022/08/23 06:58:41;;;;;;;6.07;3.10;;;;;;;;;;5030397;28;20260;-70
2022/08/23 07:01:32;;;;;;;6.63;3.50;;;;;;;;;;5022777;28;20652;-69
2022/08/23 07:04:44;;;;;;;5.77;3.53;;;;;;;;;;5040006;28;20212;-69
2022/08/23 07:07:28;;;;;;;5.13;3.73;;;;;;;;;;5046733;28;20201;-71
2022/08/23 07:10:08;;;;;;;5.37;3.60;;;;;;;;;;5029193;28;20226;-71
2022/08/23 07:12:40;;;;;;;4.57;3.00;;;;;;;;;;5040118;28;20269;-70
2022/08/23 07:15:09;;;;;;;5.60;3.27;;;;;;;;;;5039600;28;20222;-76
2022/08/23 07:17:38;;;;;;;6.30;3.63;;;;;;;;;;5042576;28;20194;-74
2022/08/23 07:20:06;;;;;;;6.30;3.30;;;;;;;;;;5021784;28;20202;-75
2022/08/23 07:22:37;;;;;;;6.40;3.50;;;;;;;;;;5013157;28;20226;-74
2022/08/23 07:25:04;;;;;;;4.73;3.50;;;;;;;;;;5030601;28;20293;-75
2022/08/23 07:27:32;;;;;;;5.97;3.57;;;;;;;;;;5023501;28;20524;-75
2022/08/23 07:30:18;;;;;;;7.37;3.90;;;;;;;;;;5041905;28;20218;-79
2022/08/23 07:32:47;;;;;;;5.43;3.63;;;;;;;;;;5026621;28;20215;-79
2022/08/23 07:35:22;;;;;;;7.37;4.13;;;;;;;;;;5025938;28;20256;-79
2022/08/23 07:37:52;;;;;;;7.57;3.80;;;;;;;;;;5053215;28;20930;-79
2022/08/23 07:40:21;;;;;;;5.67;3.33;;;;;;;;;;5043247;28;20198;-79
2022/08/23 07:42:55;;;;;;;5.87;3.97;;;;;;;;;;5043684;28;20248;-80
2022/08/23 07:45:23;;;;;;;6.93;3.77;;;;;;;;;;5025264;28;20187;-73
2022/08/23 07:47:54;;;;;;;8.07;3.87;;;;;;;;;;5027508;28;20232;-76
2022/08/23 07:50:24;;;;;;;7.50;3.63;;;;;;;;;;5039538;28;20219;-77
2022/08/23 07:53:01;;;;;;;4.53;3.00;;;;;;;;;;5026238;28;20194;-76
2022/08/23 07:55:46;;;;;;;7.40;3.30;;;;;;;;;;5051019;28;20678;-74
2022/08/23 07:58:38;;;;;;;5.23;3.47;;;;;;;;;;5043308;28;20190;-75
2022/08/23 08:01:24;;;;;;;5.40;3.60;;;;;;;;;;5043768;28;20206;-75
2022/08/23 08:03:52;;;;;;;5.23;3.07;;;;;;;;;;5026267;28;20619;-75
2022/08/23 08:06:31;;;;;;;5.17;3.50;;;;;;;;;;5026544;28;20210;-74
2022/08/23 08:08:58;;;;;;;6.20;3.67;;;;;;;;;;5009085;28;20264;-75
2022/08/23 08:11:44;;;;;;;7.10;3.70;;;;;;;;;;5044096;28;20279;-77
2022/08/23 08:14:12;;;;;;;7.20;3.90;;;;;;;;;;5047507;28;20233;-78
2022/08/23 08:16:47;;;;;;;8.87;3.93;;;;;;;;;;5036237;28;20198;-74
2022/08/23 08:19:21;;;;;;;6.27;3.97;;;;;;;;;;5025573;28;20289;-73
2022/08/23 08:22:21;;;;;;;7.43;4.60;;;;;;;;;;5013759;28;20224;-76
2022/08/23 08:25:07;;;;;;;8.77;4.57;;;;;;;;;;5043027;28;20341;-73
2022/08/23 08:27:37;;;;;;;7.67;4.37;;;;;;;;;;5024878;28;20289;-73
2022/08/23 08:30:05;;;;;;;7.90;4.33;;;;;;;;;;5043759;28;20242;-73
2022/08/23 08:32:32;;;;;;;7.47;4.83;;;;;;;;;;5011439;28;20191;-66
2022/08/23 08:34:59;;;;;;;8.67;4.53;;;;;;;;;;5025712;28;20244;-68
2022/08/23 08:37:27;;;;;;;6.47;4.50;;;;;;;;;;5044603;28;20203;-65
2022/08/23 08:40:12;;;;;;;9.00;4.27;;;;;;;;;;5042624;28;20179;-66
2022/08/23 08:42:42;;;;;;;7.87;4.70;;;;;;;;;;5043001;28;20559;-67
2022/08/23 08:45:11;;;;;;;7.03;4.57;;;;;;;;;;5023461;28;20225;-69
2022/08/23 08:47:40;;;;;;;9.03;4.37;;;;;;;;;;5042207;28;20195;-66
2022/08/23 08:50:22;;;;;;;7.80;4.07;;;;;;;;;;5043434;28;20235;-67
2022/08/23 08:52:54;;;;;;;8.57;5.20;;;;;;;;;;5052556;28;20194;-65
2022/08/23 08:55:50;;;;;;;9.53;5.30;;;;;;;;;;5025263;28;20194;-66
2022/08/23 08:58:40;;;;;;;9.60;4.40;;;;;;;;;;5025604;28;20538;-66
2022/08/23 09:01:07;;;;;;;8.13;4.57;;;;;;;;;;5022631;28;20215;-67
2022/08/23 09:03:38;;;;;;;8.27;4.27;;;;;;;;;;5023788;28;20732;-66
2022/08/23 09:06:13;;;;;;;7.03;4.40;;;;;;;;;;5024432;28;20189;-68
2022/08/23 09:08:40;;;;;;;9.10;4.67;;;;;;;;;;5024846;28;20205;-67
2022/08/23 09:11:08;;;;;;;9.43;4.57;;;;;;;;;;5023459;28;20222;-67
2022/08/23 09:13:54;;;;;;;9.17;4.30;;;;;;;;;;5043327;28;20836;-66
2022/08/23 09:16:21;;;;;;;8.90;4.53;;;;;;;;;;5024158;28;20208;-66
2022/08/23 09:18:49;;;;;;;9.23;5.20;;;;;;;;;;5043659;28;20197;-65
2022/08/23 09:21:16;;;;;;;14.40;5.40;;;;;;;;;;5041555;28;20191;-68
2022/08/23 09:23:44;;;;;;;13.50;5.33;;;;;;;;;;5041580;28;20209;-67
2022/08/23 09:26:24;;;;;;;10.13;4.90;;;;;;;;;;5022416;28;20239;-66
2022/08/23 09:28:52;;;;;;;9.47;5.30;;;;;;;;;;5040865;28;20220;-66
2022/08/23 09:31:40;;;;;;;12.33;5.87;;;;;;;;;;5023874;28;20200;-66
2022/08/23 09:34:08;;;;;;;11.83;5.60;;;;;;;;;;5025430;28;20187;-71
2022/08/23 09:36:45;;;;;;;15.50;5.70;;;;;;;;;;5023507;28;20185;-77
2022/08/23 09:39:23;;;;;;;11.20;5.67;;;;;;;;;;5043055;28;20649;-70
2022/08/23 09:42:01;;;;;;;12.20;6.47;;;;;;;;;;5039849;28;20192;-71
2022/08/23 09:44:35;;;;;;;14.47;6.90;;;;;;;;;;5022850;28;20199;-70
2022/08/23 09:47:12;;;;;;;9.03;6.50;;;;;;;;;;5046495;28;20702;-69
2022/08/23 09:49:47;;;;;;;12.43;6.70;;;;;;;;;;5020662;28;20268;-68
2022/08/23 09:52:19;;;;;;;11.50;6.60;;;;;;;;;;5052722;28;20197;-69
2022/08/23 09:54:57;;;;;;;12.03;6.30;;;;;;;;;;5038097;28;20256;-70
2022/08/23 09:57:25;;;;;;;8.83;5.97;;;;;;;;;;5008823;28;20203;-73
2022/08/23 09:59:59;;;;;;;11.73;6.47;;;;;;;;;;5020451;28;20853;-72
2022/08/23 10:02:33;;;;;;;10.30;5.93;;;;;;;;;;5025723;28;20682;-74
2022/08/23 10:05:17;;;;;;;10.83;5.93;;;;;;;;;;5020904;28;20303;-74
2022/08/23 10:08:01;;;;;;;12.20;6.53;;;;;;;;;;5022651;28;20234;-74
2022/08/23 10:10:46;;;;;;;11.70;6.50;;;;;;;;;;5021128;28;20728;-72
2022/08/23 10:13:22;;;;;;;12.83;6.30;;;;;;;;;;5021521;28;20593;-71
2022/08/23 10:15:49;;;;;;;13.03;6.07;;;;;;;;;;5021959;28;20198;-74
2022/08/23 10:18:42;;;;;;;11.03;5.10;;;;;;;;;;5042638;28;20736;-73
2022/08/23 10:21:30;;;;;;;13.53;5.50;;;;;;;;;;5022121;28;20724;-73
2022/08/23 10:24:18;;;;;;;16.00;6.00;;;;;;;;;;5021441;28;20223;-71
2022/08/23 10:26:51;;;;;;;13.57;5.67;;;;;;;;;;5021066;28;20285;-71
2022/08/23 10:32:21;;;;;;;10.27;5.70;;;;;;;;;;4989269;28;20200;-71
2022/08/23 10:35:13;;;;;;;12.47;5.33;;;;;;;;;;5047062;28;20269;-70
2022/08/23 10:37:46;;;;;;;13.17;5.43;;;;;;;;;;5006023;28;20210;-70
2022/08/23 10:40:16;;;;;;;13.00;5.53;;;;;;;;;;5047402;28;20203;-70
2022/08/23 10:42:46;;;;;;;9.87;5.50;;;;;;;;;;5012392;28;20226;-74
2022/08/23 10:45:24;;;;;;;15.80;5.63;;;;;;;;;;5036668;28;20225;-70
2022/08/23 10:47:57;;;;;;;15.23;5.53;;;;;;;;;;5016490;28;20198;-72
2022/08/23 10:50:50;;;;;;;14.07;5.17;;;;;;;;;;5022384;28;20234;-71
2022/08/23 10:53:23;;;;;;;11.23;5.40;;;;;;;;;;5008591;28;20186;-71
2022/08/23 10:56:03;;;;;;;10.87;5.67;;;;;;;;;;5028975;28;20183;-70
2022/08/23 10:58:44;;;;;;;11.10;5.40;;;;;;;;;;5015624;28;20893;-70
2022/08/23 11:01:18;;;;;;;9.13;4.90;;;;;;;;;;5011291;28;20202;-70
2022/08/23 11:03:59;;;;;;;12.60;5.20;;;;;;;;;;5002311;28;20194;-72
2022/08/23 11:06:33;;;;;;;11.70;5.07;;;;;;;;;;5025195;28;20190;-71
2022/08/23 11:09:06;;;;;;;13.33;5.17;;;;;;;;;;5044333;28;20191;-70
2022/08/23 11:12:01;;;;;;;14.07;5.30;;;;;;;;;;5013591;28;20178;-70
2022/08/23 11:14:38;;;;;;;13.30;5.20;;;;;;;;;;5042718;28;20345;-73
2022/08/23 11:17:07;;;;;;;10.87;4.93;;;;;;;;;;5031565;28;20201;-74
2022/08/23 11:19:54;;;;;;;10.43;5.00;;;;;;;;;;5007455;28;20193;-74
2022/08/23 11:22:25;;;;;;;11.93;4.90;;;;;;;;;;5040182;28;20195;-74
2022/08/23 11:24:56;;;;;;;16.50;5.30;;;;;;;;;;5028322;28;20223;-76
2022/08/23 11:27:26;;;;;;;13.27;5.20;;;;;;;;;;5023583;28;20198;-70
2022/08/23 11:29:53;;;;;;;12.33;5.13;;;;;;;;;;5021372;28;20333;-72
2022/08/23 11:32:36;;;;;;;12.07;5.60;;;;;;;;;;5039347;28;20199;-71
2022/08/23 11:35:12;;;;;;;14.10;4.80;;;;;;;;;;5021594;28;20202;-69
2022/08/23 11:38:07;;;;;;;14.27;5.17;;;;;;;;;;5019852;28;20206;-70
2022/08/23 11:40:42;;;;;;;14.03;5.30;;;;;;;;;;5022231;28;20203;-70
2022/08/23 11:43:12;;;;;;;16.07;5.50;;;;;;;;;;5020267;28;20199;-70
2022/08/23 11:45:44;;;;;;;11.87;5.03;;;;;;;;;;5021520;28;20277;-70
2022/08/23 11:48:21;;;;;;;11.63;5.10;;;;;;;;;;5021328;28;20198;-70
2022/08/23 11:50:52;;;;;;;12.33;4.80;;;;;;;;;;5022032;28;20222;-76
2022/08/23 11:53:35;;;;;;;15.20;6.07;;;;;;;;;;5039273;28;20194;-73
2022/08/23 11:56:02;;;;;;;13.50;5.17;;;;;;;;;;5019761;28;20208;-75
2022/08/23 11:58:31;;;;;;;14.23;5.33;;;;;;;;;;5039595;28;20304;-71
2022/08/23 12:01:06;;;;;;;13.03;5.90;;;;;;;;;;5040032;28;20274;-72
2022/08/23 12:03:51;;;;;;;13.47;5.27;;;;;;;;;;5040003;28;20699;-72
2022/08/23 12:06:19;;;;;;;17.90;5.53;;;;;;;;;;5039810;28;20221;-77
2022/08/23 12:08:50;;;;;;;13.93;5.90;;;;;;;;;;5037443;28;20199;-69
2022/08/23 12:11:17;;;;;;;12.77;5.60;;;;;;;;;;5038852;28;20264;-75
2022/08/23 12:13:45;;;;;;;11.10;5.13;;;;;;;;;;5020491;28;20226;-70
2022/08/23 12:16:12;;;;;;;11.87;5.03;;;;;;;;;;5038508;28;20204;-70
2022/08/23 12:18:42;;;;;;;11.50;5.60;;;;;;;;;;5015931;28;20195;-70
2022/08/23 12:21:18;;;;;;;17.13;5.33;;;;;;;;;;5023508;28;20296;-70
2022/08/23 12:23:46;;;;;;;12.57;4.73;;;;;;;;;;5030091;28;20234;-72
2022/08/23 12:26:26;;;;;;;16.67;5.13;;;;;;;;;;5025900;28;20202;-72
2022/08/23 12:29:06;;;;;;;11.30;5.40;;;;;;;;;;5042029;28;20237;-70
2022/08/23 12:31:38;;;;;;;10.30;4.93;;;;;;;;;;5022423;28;20975;-73
2022/08/23 12:34:05;;;;;;;11.97;5.80;;;;;;;;;;5037385;28;20246;-77
2022/08/23 12:36:45;;;;;;;14.60;6.07;;;;;;;;;;5040303;28;20196;-76
2022/08/23 12:39:35;;;;;;;14.40;5.73;;;;;;;;;;5038826;28;20198;-77
2022/08/23 12:42:09;;;;;;;13.57;5.37;;;;;;;;;;5037858;28;20600;-73
2022/08/23 12:44:37;;;;;;;13.27;6.30;;;;;;;;;;5025258;28;20478;-74
2022/08/23 12:47:14;;;;;;;13.30;5.70;;;;;;;;;;5035860;28;20226;-72
2022/08/23 12:49:41;;;;;;;15.83;5.83;;;;;;;;;;5041783;28;20221;-72
2022/08/23 12:52:10;;;;;;;14.33;5.33;;;;;;;;;;5040800;28;20237;-78
2022/08/23 12:54:46;;;;;;;10.60;5.47;;;;;;;;;;5042640;28;20195;-77
2022/08/23 12:57:16;;;;;;;13.93;5.50;;;;;;;;;;5043687;28;20201;-76
2022/08/23 13:00:05;;;;;;;10.40;4.83;;;;;;;;;;5040861;28;20192;-75
2022/08/23 13:03:04;;;;;;;14.90;5.83;;;;;;;;;;5043083;28;20191;-75
2022/08/23 13:05:31;;;;;;;21.33;5.70;;;;;;;;;;5039443;28;20241;-76
2022/08/23 13:08:17;;;;;;;11.97;5.63;;;;;;;;;;5043037;28;20190;-75
2022/08/23 13:10:46;;;;;;;12.90;4.97;;;;;;;;;;5040147;28;20294;-75
2022/08/23 13:13:14;;;;;;;15.27;5.47;;;;;;;;;;5041698;28;20329;-75
2022/08/23 13:15:43;;;;;;;18.10;5.90;;;;;;;;;;5041752;28;20186;-78
2022/08/23 13:18:10;;;;;;;14.07;5.57;;;;;;;;;;5042703;28;20207;-76
2022/08/23 13:20:37;;;;;;;13.20;5.33;;;;;;;;;;5044221;28;20193;-76
2022/08/23 13:23:06;;;;;;;12.77;5.90;;;;;;;;;;5027744;28;20230;-76
2022/08/23 13:25:37;;;;;;;15.30;5.50;;;;;;;;;;5026075;28;20191;-76
2022/08/23 13:28:42;;;;;;;14.00;5.50;;;;;;;;;;5024810;28;20308;-75
2022/08/23 13:31:09;;;;;;;12.53;4.80;;;;;;;;;;5036772;28;20263;-73
2022/08/23 13:33:36;;;;;;;18.80;5.83;;;;;;;;;;5053708;28;20184;-74
2022/08/23 13:36:06;;;;;;;11.30;5.30;;;;;;;;;;5048605;28;20211;-74
2022/08/23 13:38:39;;;;;;;11.67;5.03;;;;;;;;;;5047449;28;20207;-74
2022/08/23 13:41:07;;;;;;;12.40;5.60;;;;;;;;;;5029632;28;20271;-73
2022/08/23 13:43:43;;;;;;;11.07;5.73;;;;;;;;;;5047688;28;20291;-74
2022/08/23 13:46:11;;;;;;;13.50;4.97;;;;;;;;;;5048493;28;20202;-74
2022/08/23 13:48:42;;;;;;;14.83;4.97;;;;;;;;;;5047991;28;20183;-73
2022/08/23 13:51:16;;;;;;;16.07;5.27;;;;;;;;;;5014257;28;20215;-74
2022/08/23 13:54:04;;;;;;;12.33;5.20;;;;;;;;;;5034402;28;20174;-73
2022/08/23 13:56:33;;;;;;;13.33;5.37;;;;;;;;;;5050160;28;20187;-74
2022/08/23 13:59:02;;;;;;;17.30;5.53;;;;;;;;;;5041991;28;20586;-74
2022/08/23 14:01:29;;;;;;;16.63;5.00;;;;;;;;;;5012636;28;20862;-72
2022/08/23 14:03:56;;;;;;;18.00;5.93;;;;;;;;;;5020391;28;20202;-73
2022/08/23 14:06:24;;;;;;;17.53;5.50;;;;;;;;;;5041170;28;20191;-72
2022/08/23 14:08:55;;;;;;;14.17;5.60;;;;;;;;;;5036386;28;20201;-75
2022/08/23 14:11:26;;;;;;;12.90;5.77;;;;;;;;;;5017834;28;20215;-75
2022/08/23 14:13:55;;;;;;;18.80;6.73;;;;;;;;;;5032258;28;20235;-73
2022/08/23 14:16:29;;;;;;;15.70;5.40;;;;;;;;;;5005258;28;20184;-75
2022/08/23 14:19:01;;;;;;;12.17;5.63;;;;;;;;;;5006214;28;20274;-72
2022/08/23 14:21:48;;;;;;;15.53;6.13;;;;;;;;;;4993005;28;20180;-74
2022/08/23 14:24:17;;;;;;;11.33;6.40;;;;;;;;;;4975616;28;20237;-75
2022/08/23 14:26:44;;;;;;;13.93;6.23;;;;;;;;;;5001222;28;20324;-74
2022/08/23 14:29:19;;;;;;;14.13;5.90;;;;;;;;;;5019047;28;20186;-77
2022/08/23 14:31:48;;;;;;;14.93;5.80;;;;;;;;;;5021061;28;20240;-74
2022/08/23 14:34:15;;;;;;;16.43;5.67;;;;;;;;;;5021595;28;20594;-73
2022/08/23 14:36:42;;;;;;;17.20;5.93;;;;;;;;;;5021579;28;20192;-71
2022/08/23 14:39:29;;;;;;;13.60;6.67;;;;;;;;;;5007811;28;20198;-73
2022/08/23 14:41:56;;;;;;;14.00;6.00;;;;;;;;;;5004468;28;20194;-72
2022/08/23 14:44:23;;;;;;;12.87;5.70;;;;;;;;;;5022215;28;20207;-73
2022/08/23 14:46:54;;;;;;;12.57;5.93;;;;;;;;;;5004280;28;20191;-78
2022/08/23 14:49:22;;;;;;;15.20;6.00;;;;;;;;;;5022329;28;20195;-72
2022/08/23 14:51:49;;;;;;;13.63;5.83;;;;;;;;;;5004490;28;20219;-79
2022/08/23 14:54:18;;;;;;;14.17;5.67;;;;;;;;;;5005907;28;20187;-76
2022/08/23 14:56:45;;;;;;;16.53;6.10;;;;;;;;;;5003833;28;20191;-80
2022/08/23 14:59:14;;;;;;;15.63;5.87;;;;;;;;;;5005382;28;20249;-75
2022/08/23 15:01:41;;;;;;;15.70;6.43;;;;;;;;;;5005027;28;20199;-77
2022/08/23 15:04:08;;;;;;;14.70;5.77;;;;;;;;;;5022186;28;20187;-76
2022/08/23 15:06:35;;;;;;;15.77;5.47;;;;;;;;;;4987171;28;20882;-78
2022/08/23 15:09:02;;;;;;;13.33;5.63;;;;;;;;;;5022045;28;20222;-75
2022/08/23 15:11:30;;;;;;;14.37;5.77;;;;;;;;;;5021458;28;20807;-77
2022/08/23 15:14:17;;;;;;;12.97;5.57;;;;;;;;;;5020557;28;20233;-74
2022/08/23 15:16:45;;;;;;;16.40;6.27;;;;;;;;;;5020964;28;20192;-73
2022/08/23 15:19:14;;;;;;;16.40;6.37;;;;;;;;;;5003135;28;20659;-72
2022/08/23 15:21:40;;;;;;;13.47;6.03;;;;;;;;;;5018938;28;20219;-76
2022/08/23 15:24:07;;;;;;;11.23;6.07;;;;;;;;;;5012267;28;20446;-75
2022/08/23 15:26:34;;;;;;;15.10;5.67;;;;;;;;;;5011699;28;20997;-74
2022/08/23 15:29:02;;;;;;;12.47;5.37;;;;;;;;;;5004074;28;20253;-73
2022/08/23 15:31:29;;;;;;;15.80;6.30;;;;;;;;;;5004004;28;20238;-72